Time;durP1;ratioP1;P1;durP2;ratioP2;P2;SDS_P1;SDS_P2;PMS_P1;PMS_P2;Temp;Humidity;BMP_temperature;BMP_pressure;BME280_temperature;BME280_humidity;BME280_pressure;Samples;Min_cycle;Max_cycle;Signal;HPM_P1;HPM_P2
2022/01/07 00:00:16;;;;;;;0.60;0.60;;;;;;;-1.18;84.60;97214.88;29373;265;63009;-57
2022/01/07 00:00:48;;;;;;;0.70;0.70;;;;;;;-1.22;84.78;97208.34;29373;219;63005;-58
2022/01/07 00:01:19;;;;;;;0.60;0.60;;;;;;;-1.24;84.88;97216.53;29373;226;63009;-57
2022/01/07 00:01:50;;;;;;;0.70;0.70;;;;;;;-1.24;84.72;97205.91;29373;209;63005;-56
2022/01/07 00:02:21;;;;;;;0.70;0.70;;;;;;;-1.20;84.88;97200.97;29373;280;63009;-58
2022/01/07 00:02:55;;;;;;;0.68;0.68;;;;;;;-1.20;84.37;97206.28;29373;205;63000;-57
2022/01/07 00:03:27;;;;;;;0.60;0.60;;;;;;;-1.22;84.73;97209.16;29373;225;63009;-57
2022/01/07 00:03:58;;;;;;;0.60;0.60;;;;;;;-1.23;84.58;97204.06;29371;237;64004;-57
2022/01/07 00:04:32;;;;;;;0.60;0.60;;;;;;;-1.23;84.65;97198.72;29373;231;63009;-58
2022/01/07 00:05:04;;;;;;;0.60;0.60;;;;;;;-1.26;84.60;97201.81;29373;261;63004;-59
2022/01/07 00:05:36;;;;;;;0.68;0.68;;;;;;;-1.26;84.52;97201.81;29373;248;63008;-58
2022/01/07 00:06:07;;;;;;;0.68;0.68;;;;;;;-1.30;84.46;97195.25;29373;258;63005;-58
2022/01/07 00:06:38;;;;;;;0.62;0.62;;;;;;;-1.30;84.84;97205.91;29371;283;64009;-58
2022/01/07 00:07:10;;;;;;;1.00;1.00;;;;;;;-1.28;84.64;97199.34;29373;251;63005;-58
2022/01/07 00:07:42;;;;;;;0.62;0.62;;;;;;;-1.27;84.54;97202.84;29373;215;63009;-57
2022/01/07 00:08:13;;;;;;;0.60;0.60;;;;;;;-1.27;84.65;97206.31;29373;224;63005;-59
2022/01/07 00:08:45;;;;;;;0.70;0.70;;;;;;;-1.26;84.72;97199.16;29372;202;63009;-58
2022/01/07 00:09:18;;;;;;;0.60;0.60;;;;;;;-1.24;84.90;97205.06;29373;199;63005;-58
2022/01/07 00:09:49;;;;;;;0.70;0.70;;;;;;;-1.24;84.89;97210.41;29373;231;63019;-58
2022/01/07 00:10:22;;;;;;;0.70;0.70;;;;;;;-1.26;84.68;97202.63;29373;230;63004;-59
2022/01/07 00:10:54;;;;;;;0.70;0.70;;;;;;;-1.23;84.58;97204.06;29371;265;64009;-58
2022/01/07 00:11:25;;;;;;;0.70;0.70;;;;;;;-1.23;84.47;97201.38;29373;252;63004;-58
2022/01/07 00:11:57;;;;;;;0.68;0.68;;;;;;;-1.26;84.75;97202.63;29373;203;63009;-59
2022/01/07 00:12:29;;;;;;;0.60;0.60;;;;;;;-1.27;84.58;97206.31;29373;212;63007;-58
2022/01/07 00:13:01;;;;;;;0.60;0.60;;;;;;;-1.30;84.75;97206.72;29373;199;63008;-58
2022/01/07 00:13:33;;;;;;;0.70;0.70;;;;;;;-1.32;84.70;97202.63;29373;197;63005;-57
2022/01/07 00:14:06;;;;;;;0.70;0.70;;;;;;;-1.36;85.00;97203.06;29373;248;63009;-58
2022/01/07 00:14:39;;;;;;;0.70;0.70;;;;;;;-1.38;84.95;97198.97;29373;239;63005;-58
2022/01/07 00:15:12;;;;;;;0.70;0.70;;;;;;;-1.40;85.12;97195.72;29373;203;63009;-59
2022/01/07 00:15:45;;;;;;;0.70;0.70;;;;;;;-1.39;85.09;97202.69;29373;216;63005;-58
2022/01/07 00:16:16;;;;;;;0.70;0.70;;;;;;;-1.40;85.08;97201.88;29371;232;64009;-58
2022/01/07 00:16:48;;;;;;;0.70;0.70;;;;;;;-1.39;84.98;97192.81;29373;261;63005;-56
2022/01/07 00:17:21;;;;;;;0.60;0.60;;;;;;;-1.39;85.31;97197.38;29373;227;63009;-59
2022/01/07 00:17:55;;;;;;;0.70;0.70;;;;;;;-1.42;84.94;97192.47;29373;199;63004;-58
2022/01/07 00:18:26;;;;;;;1.87;1.87;;;;;;;-1.41;85.24;97196.75;29373;205;63009;-58
2022/01/07 00:18:59;;;;;;;0.70;0.70;;;;;;;-1.43;85.01;97193.47;29373;235;63004;-59
2022/01/07 00:19:30;;;;;;;0.62;0.62;;;;;;;-1.43;85.33;97183.66;29373;260;63009;-58
2022/01/07 00:20:11;;;;;;;0.70;0.70;;;;;;;-1.44;85.23;97190.00;29373;223;63004;-58
2022/01/07 00:20:45;;;;;;;0.70;0.70;;;;;;;-1.45;85.11;97190.22;29395;233;63008;-58
2022/01/07 00:21:18;;;;;;;0.70;0.70;;;;;;;-1.46;85.31;97189.41;29394;230;64005;-58
2022/01/07 00:21:50;;;;;;;0.90;0.90;;;;;;;-1.45;85.26;97188.37;29373;257;63009;-59
2022/01/07 00:22:23;;;;;;;0.60;0.60;;;;;;;-1.44;85.21;97181.19;29373;230;63005;-58
2022/01/07 00:22:55;;;;;;;0.70;0.70;;;;;;;-1.44;85.39;97181.19;29373;199;63009;-59
2022/01/07 00:23:27;;;;;;;0.70;0.70;;;;;;;-1.44;85.43;97179.34;29373;238;63005;-59
2022/01/07 00:23:59;;;;;;;0.60;0.60;;;;;;;-1.42;85.44;97179.16;29373;250;63009;-59
2022/01/07 00:24:32;;;;;;;1.30;1.30;;;;;;;-1.41;85.42;97178.12;29373;266;63004;-58
2022/01/07 00:25:05;;;;;;;0.70;0.70;;;;;;;-1.42;85.49;97177.31;29373;226;63009;-58
2022/01/07 00:25:38;;;;;;;0.70;0.70;;;;;;;-1.39;85.01;97176.84;29373;206;63004;-58
2022/01/07 00:26:10;;;;;;;1.77;1.73;;;;;;;-1.38;85.01;97177.69;29371;198;64009;-58
2022/01/07 00:26:43;;;;;;;0.70;0.70;;;;;;;-1.38;84.77;97177.69;29373;280;63008;-58
2022/01/07 00:27:17;;;;;;;0.70;0.70;;;;;;;-1.39;84.85;97170.75;29373;209;63008;-59
2022/01/07 00:27:52;;;;;;;0.60;0.60;;;;;;;-1.39;85.00;97171.53;29371;230;64004;-59
2022/01/07 00:28:24;;;;;;;0.70;0.70;;;;;;;-1.39;85.09;97166.22;29373;219;63008;-58
2022/01/07 00:28:56;;;;;;;0.80;0.80;;;;;;;-1.40;84.97;97169.94;29373;197;63010;-59
2022/01/07 00:29:30;;;;;;;0.62;0.62;;;;;;;-1.41;84.86;97168.28;29373;257;63009;-58
2022/01/07 00:30:04;;;;;;;0.60;0.60;;;;;;;-1.40;84.81;97171.78;29373;210;63005;-58
2022/01/07 00:30:36;;;;;;;0.70;0.70;;;;;;;-1.41;85.04;97173.63;29373;219;63009;-58
2022/01/07 00:31:09;;;;;;;0.60;0.60;;;;;;;-1.42;84.87;97171.16;29373;222;63005;-58
2022/01/07 00:31:42;;;;;;;0.98;0.98;;;;;;;-1.43;84.88;97175.66;29371;231;64009;-58
2022/01/07 00:32:13;;;;;;;0.60;0.60;;;;;;;-1.45;84.96;97169.75;29373;210;63004;-59
2022/01/07 00:32:46;;;;;;;0.70;0.70;;;;;;;-1.45;85.14;97174.25;29373;204;63009;-58
2022/01/07 00:33:18;;;;;;;0.60;0.60;;;;;;;-1.44;85.16;97175.88;29373;256;63004;-58
2022/01/07 00:33:50;;;;;;;0.70;0.70;;;;;;;-1.44;85.37;97171.38;29373;220;63009;-59
2022/01/07 00:34:22;;;;;;;0.70;0.70;;;;;;;-1.43;85.35;97167.69;29373;202;63004;-58
2022/01/07 00:34:53;;;;;;;0.70;0.70;;;;;;;-1.44;85.41;97166.06;29373;253;63008;-58
2022/01/07 00:35:24;;;;;;;0.70;0.70;;;;;;;-1.42;85.09;97171.16;29372;271;63005;-58
2022/01/07 00:35:59;;;;;;;0.70;0.70;;;;;;;-1.42;85.39;97176.50;29373;255;63009;-58
2022/01/07 00:36:30;;;;;;;0.70;0.70;;;;;;;-1.43;85.08;97170.34;29373;245;63005;-59
2022/01/07 00:37:02;;;;;;;0.70;0.70;;;;;;;-1.43;85.21;97162.38;29371;247;64009;-58
2022/01/07 00:37:35;;;;;;;0.70;0.70;;;;;;;-1.43;84.99;97175.66;29373;225;63005;-58
2022/01/07 00:38:07;;;;;;;0.60;0.60;;;;;;;-1.44;85.29;97168.72;29373;244;63009;-60
2022/01/07 00:38:39;;;;;;;0.80;0.80;;;;;;;-1.44;85.26;97176.69;29373;236;63005;-59
2022/01/07 00:39:10;;;;;;;0.60;0.60;;;;;;;-1.45;85.35;97164.41;29371;225;64009;-59
2022/01/07 00:39:42;;;;;;;0.70;0.70;;;;;;;-1.45;85.19;97167.06;29373;249;63004;-57
2022/01/07 00:40:22;;;;;;;1.55;1.55;;;;;;;-1.44;84.98;97166.06;29373;214;63009;-59
2022/01/07 00:40:54;;;;;;;0.60;0.60;;;;;;;-1.41;84.92;97162.97;29373;255;63004;-59
2022/01/07 00:41:28;;;;;;;0.70;0.70;;;;;;;-1.38;84.72;97162.53;29373;211;63009;-57
2022/01/07 00:42:00;;;;;;;0.70;0.70;;;;;;;-1.37;84.19;97164.16;29373;232;63004;-59
2022/01/07 00:42:32;;;;;;;0.70;0.70;;;;;;;-1.35;84.25;97166.59;29373;228;63008;-58
2022/01/07 00:43:05;;;;;;;0.70;0.70;;;;;;;-1.37;84.13;97164.16;29373;218;63005;-58
2022/01/07 00:43:43;;;;;;;0.70;0.70;;;;;;;-1.41;84.37;97168.28;29371;203;64009;-60
2022/01/07 00:44:16;;;;;;;0.70;0.70;;;;;;;-1.43;84.19;97154.38;29371;211;64005;-58
2022/01/07 00:44:51;;;;;;;0.70;0.70;;;;;;;-1.43;84.62;97165.03;29373;228;63009;-58
2022/01/07 00:45:24;;;;;;;0.60;0.60;;;;;;;-1.43;84.33;97159.69;29373;227;63005;-59
2022/01/07 00:45:56;;;;;;;0.60;0.60;;;;;;;-1.44;84.70;97159.91;29373;266;63009;-59
2022/01/07 00:46:31;;;;;;;0.68;0.68;;;;;;;-1.45;84.94;97161.75;29371;220;64005;-59
2022/01/07 00:47:04;;;;;;;0.70;0.70;;;;;;;-1.45;85.08;97163.59;29373;213;63009;-62
2022/01/07 00:47:36;;;;;;;0.70;0.70;;;;;;;-1.46;84.94;97161.97;29373;269;63004;-59
2022/01/07 00:48:07;;;;;;;0.60;0.60;;;;;;;-1.48;84.83;97162.16;29373;210;63018;-57
2022/01/07 00:48:39;;;;;;;0.70;0.70;;;;;;;-1.49;84.64;97160.53;29373;197;63004;-57
2022/01/07 00:49:12;;;;;;;0.70;0.70;;;;;;;-1.50;84.96;97158.91;29373;245;63009;-58
2022/01/07 00:49:49;;;;;;;0.70;0.70;;;;;;;-1.50;84.88;97158.91;29373;197;63004;-58
2022/01/07 00:50:25;;;;;;;1.45;1.45;;;;;;;-1.51;85.02;97165.25;29371;220;64008;-58
2022/01/07 00:50:58;;;;;;;4.05;3.85;;;;;;;-1.51;84.99;97161.78;29373;199;63005;-58
2022/01/07 00:51:29;;;;;;;0.70;0.70;;;;;;;-1.52;85.12;97171.59;29373;198;63009;-59
2022/01/07 00:52:02;;;;;;;0.60;0.60;;;;;;;-1.51;85.15;97165.25;29373;197;63005;-58
2022/01/07 00:52:33;;;;;;;0.70;0.70;;;;;;;-1.51;85.01;97167.09;29373;204;63009;-58
2022/01/07 00:53:05;;;;;;;0.70;0.70;;;;;;;-1.53;84.88;97169.97;29373;212;63005;-58
2022/01/07 00:53:37;;;;;;;0.70;0.70;;;;;;;-1.54;85.08;97168.31;29373;196;63009;-58
2022/01/07 00:54:10;;;;;;;0.88;0.88;;;;;;;-1.54;85.04;97165.66;29373;202;63009;-58
2022/01/07 00:54:41;;;;;;;1.00;1.00;;;;;;;-1.56;85.28;97165.06;29373;254;63009;-59
2022/01/07 00:55:15;;;;;;;0.60;0.60;;;;;;;-1.53;85.13;97161.16;29371;255;64004;-58
2022/01/07 00:55:47;;;;;;;0.70;0.70;;;;;;;-1.52;85.13;97158.28;29373;260;63009;-58
2022/01/07 00:56:20;;;;;;;0.60;0.60;;;;;;;-1.51;85.03;97167.09;29373;247;63004;-58
2022/01/07 00:56:51;;;;;;;0.70;0.70;;;;;;;-1.52;84.93;97166.28;29373;245;63009;-58
2022/01/07 00:57:22;;;;;;;0.70;0.70;;;;;;;-1.53;84.81;97158.50;29373;242;63004;-58
2022/01/07 00:57:57;;;;;;;0.60;0.60;;;;;;;-1.55;84.98;97158.72;29371;220;64009;-58
2022/01/07 00:58:29;;;;;;;0.70;0.70;;;;;;;-1.56;85.10;97158.91;29373;207;63005;-58
2022/01/07 00:59:02;;;;;;;0.70;0.70;;;;;;;-1.58;85.16;97161.78;29373;230;63009;-57
2022/01/07 00:59:33;;;;;;;1.65;1.17;;;;;;;-1.59;85.29;97159.34;29373;209;63005;-59
2022/01/07 01:00:12;;;;;;;0.70;0.70;;;;;;;-1.63;85.60;97158.94;29373;242;63020;-59
2022/01/07 01:00:45;;;;;;;0.70;0.70;;;;;;;-1.63;85.48;97163.44;29373;233;63005;-61
2022/01/07 01:01:17;;;;;;;0.70;0.70;;;;;;;-1.61;85.67;97161.38;29371;202;64009;-57
2022/01/07 01:01:50;;;;;;;0.70;0.70;;;;;;;-1.62;85.30;97165.87;29373;206;63005;-59
2022/01/07 01:02:24;;;;;;;0.70;0.70;;;;;;;-1.60;85.32;97161.19;29373;198;63009;-58
2022/01/07 01:02:56;;;;;;;0.70;0.70;;;;;;;-1.58;85.10;97167.09;29373;202;63004;-58
2022/01/07 01:03:28;;;;;;;0.70;0.70;;;;;;;-1.60;85.28;97153.19;29373;234;63009;-58
2022/01/07 01:04:04;;;;;;;0.60;0.60;;;;;;;-1.61;85.05;97159.53;29371;327;64004;-58
2022/01/07 01:04:37;;;;;;;0.70;0.70;;;;;;;-1.60;85.22;97158.50;29373;197;63009;-58
2022/01/07 01:05:22;;;;;;;0.70;0.70;;;;;;;-1.59;85.12;97160.16;29373;211;63004;-58
2022/01/07 01:06:02;;;;;;;0.88;0.88;;;;;;;-1.57;85.19;97157.28;29373;212;63009;-58
2022/01/07 01:06:35;;;;;;;0.70;0.70;;;;;;;-1.54;85.23;97157.69;29395;210;63009;-58
2022/01/07 01:07:11;;;;;;;0.70;0.70;;;;;;;-1.55;85.32;97156.06;29395;276;63009;-59
2022/01/07 01:07:46;;;;;;;0.62;0.62;;;;;;;-1.54;85.32;97159.53;29373;205;63005;-58
2022/01/07 01:08:18;;;;;;;0.60;0.60;;;;;;;-1.55;85.15;97158.72;29371;205;64009;-58
2022/01/07 01:08:54;;;;;;;0.70;0.70;;;;;;;-1.55;85.05;97161.38;29373;222;63005;-58
2022/01/07 01:09:27;;;;;;;0.60;0.60;;;;;;;-1.57;85.17;97160.75;29373;234;63009;-58
2022/01/07 01:09:59;;;;;;;0.70;0.70;;;;;;;-1.60;85.02;97153.19;29373;366;63000;-58
2022/01/07 01:10:34;;;;;;;0.70;0.70;;;;;;;-1.60;85.35;97152.38;29373;239;63009;-59
2022/01/07 01:11:09;;;;;;;0.70;0.70;;;;;;;-1.60;85.28;97160.34;29373;230;63004;-59
2022/01/07 01:11:43;;;;;;;0.70;0.70;;;;;;;-1.59;85.46;97157.50;29373;232;63009;-59
2022/01/07 01:12:17;;;;;;;0.70;0.70;;;;;;;-1.56;85.48;97159.72;29371;245;64004;-59
2022/01/07 01:12:49;;;;;;;0.70;0.70;;;;;;;-1.55;85.15;97155.22;29373;214;63008;-58
2022/01/07 01:13:22;;;;;;;0.70;0.70;;;;;;;-1.57;85.04;97152.78;29373;234;63005;-58
2022/01/07 01:13:55;;;;;;;0.70;0.70;;;;;;;-1.57;85.11;97150.13;29373;279;63016;-59
2022/01/07 01:14:28;;;;;;;0.70;0.70;;;;;;;-1.57;85.28;97158.09;29371;197;64005;-58
2022/01/07 01:15:04;;;;;;;0.70;0.70;;;;;;;-1.58;85.16;97152.97;29373;232;63017;-58
2022/01/07 01:15:36;;;;;;;0.70;0.70;;;;;;;-1.59;85.24;97154.81;29373;207;63005;-57
2022/01/07 01:16:08;;;;;;;0.60;0.60;;;;;;;-1.60;85.38;97158.50;29373;202;63009;-58
2022/01/07 01:16:44;;;;;;;0.70;0.70;;;;;;;-1.60;85.30;97155.84;29373;197;63005;-58
2022/01/07 01:17:16;;;;;;;0.70;0.70;;;;;;;-1.61;85.51;97151.56;29373;225;63009;-58
2022/01/07 01:18:00;;;;;;;0.60;0.60;;;;;;;-1.60;85.14;97147.06;29373;246;63017;-59
2022/01/07 01:18:33;;;;;;;0.60;0.60;;;;;;;-1.60;85.27;97152.38;29373;200;63009;-59
2022/01/07 01:19:08;;;;;;;0.70;0.70;;;;;;;-1.59;85.32;97148.69;29371;243;64004;-58
2022/01/07 01:19:41;;;;;;;0.60;0.60;;;;;;;-1.61;85.44;97148.91;29373;234;63017;-58
2022/01/07 01:20:18;;;;;;;1.90;1.87;;;;;;;-1.61;85.44;97150.75;29373;246;63004;-57
2022/01/07 01:20:50;;;;;;;0.70;0.70;;;;;;;-1.61;85.59;97150.75;29373;221;63009;-57
2022/01/07 01:21:23;;;;;;;0.90;0.90;;;;;;;-1.63;85.30;97145.63;29373;204;63005;-59
2022/01/07 01:21:56;;;;;;;0.70;0.70;;;;;;;-1.64;85.51;97146.66;29373;277;63005;-58
2022/01/07 01:22:28;;;;;;;0.60;0.60;;;;;;;-1.64;85.26;97151.97;29373;256;63008;-58
2022/01/07 01:23:01;;;;;;;0.60;0.60;;;;;;;-1.65;85.26;97147.69;29371;205;64009;-58
2022/01/07 01:23:40;;;;;;;0.85;0.85;;;;;;;-1.64;85.38;97140.50;29373;207;63005;-57
2022/01/07 01:24:13;;;;;;;0.70;0.70;;;;;;;-1.62;85.53;97143.78;29373;301;63009;-58
2022/01/07 01:24:45;;;;;;;0.60;0.60;;;;;;;-1.62;85.02;97144.59;29373;272;63004;-58
2022/01/07 01:25:18;;;;;;;0.60;0.60;;;;;;;-1.61;85.18;97140.09;29373;297;63017;-58
2022/01/07 01:25:49;;;;;;;0.60;0.60;;;;;;;-1.61;84.95;97146.25;29373;228;63004;-57
2022/01/07 01:26:25;;;;;;;0.60;0.60;;;;;;;-1.52;84.58;97149.50;29373;202;63009;-58
2022/01/07 01:26:56;;;;;;;0.60;0.60;;;;;;;-1.52;84.16;97147.66;29373;229;63004;-58
2022/01/07 01:27:28;;;;;;;2.87;1.67;;;;;;;-1.53;84.26;97143.34;29373;224;63008;-59
2022/01/07 01:28:00;;;;;;;0.70;0.70;;;;;;;-1.54;84.43;97141.72;29373;206;63007;-58
2022/01/07 01:28:36;;;;;;;0.70;0.70;;;;;;;-1.53;84.49;97145.19;29371;290;64009;-58
2022/01/07 01:29:10;;;;;;;0.70;0.70;;;;;;;-1.53;84.48;97154.00;29373;211;63012;-59
2022/01/07 01:29:43;;;;;;;0.70;0.70;;;;;;;-1.55;84.78;97145.41;29373;269;63009;-59
2022/01/07 01:30:17;;;;;;;0.60;0.60;;;;;;;-1.58;84.44;97143.16;29373;213;63005;-58
2022/01/07 01:30:52;;;;;;;0.60;0.60;;;;;;;-1.60;84.66;97147.88;29373;212;63020;-57
2022/01/07 01:31:24;;;;;;;0.60;0.60;;;;;;;-1.60;84.64;97145.22;29373;216;63005;-58
2022/01/07 01:32:00;;;;;;;0.60;0.60;;;;;;;-1.59;84.98;97143.37;29373;224;63016;-58
2022/01/07 01:32:36;;;;;;;0.65;0.65;;;;;;;-1.59;84.72;97149.50;29373;212;63004;-59
2022/01/07 01:33:11;;;;;;;0.65;0.65;;;;;;;-1.61;84.90;97143.56;29373;202;63009;-58
2022/01/07 01:33:46;;;;;;;0.70;0.70;;;;;;;-1.60;84.81;97147.06;29371;230;64004;-58
2022/01/07 01:34:20;;;;;;;0.70;0.70;;;;;;;-1.60;84.87;97142.56;29373;255;63008;-58
2022/01/07 01:34:51;;;;;;;0.70;0.70;;;;;;;-1.61;84.61;97143.56;29373;243;63005;-58
2022/01/07 01:35:23;;;;;;;0.70;0.70;;;;;;;-1.62;85.04;97139.28;29373;212;63025;-59
2022/01/07 01:35:56;;;;;;;0.70;0.70;;;;;;;-1.62;85.01;97144.59;29371;205;64005;-58
2022/01/07 01:36:28;;;;;;;0.70;0.70;;;;;;;-1.63;85.12;97142.97;29373;238;63009;-58
2022/01/07 01:37:00;;;;;;;0.60;0.60;;;;;;;-1.63;84.96;97145.63;29373;207;63005;-58
2022/01/07 01:37:36;;;;;;;0.60;0.60;;;;;;;-1.63;85.32;97134.97;29373;213;63009;-58
2022/01/07 01:38:08;;;;;;;0.70;0.70;;;;;;;-1.63;85.14;97140.31;29373;258;63005;-57
2022/01/07 01:38:43;;;;;;;0.70;0.70;;;;;;;-1.65;84.96;97137.03;29373;265;63009;-58
2022/01/07 01:39:18;;;;;;;0.60;0.60;;;;;;;-1.64;84.98;97141.34;29373;232;63004;-59
2022/01/07 01:39:51;;;;;;;0.70;0.70;;;;;;;-1.62;84.86;97139.28;29373;258;63009;-57
2022/01/07 01:40:23;;;;;;;0.70;0.70;;;;;;;-1.61;84.51;97140.91;29373;232;63004;-58
2022/01/07 01:40:55;;;;;;;0.70;0.70;;;;;;;-1.60;84.61;97136.41;29371;202;64009;-59
2022/01/07 01:41:27;;;;;;;0.60;0.60;;;;;;;-1.60;84.68;97139.88;29373;237;63004;-58
2022/01/07 01:41:59;;;;;;;0.60;0.60;;;;;;;-1.60;84.70;97137.22;29373;252;63008;-58
2022/01/07 01:42:31;;;;;;;0.70;0.70;;;;;;;-1.59;84.59;97133.53;29373;222;63005;-58
2022/01/07 01:43:04;;;;;;;0.60;0.60;;;;;;;-1.57;84.60;97133.34;29373;252;63009;-61
2022/01/07 01:43:36;;;;;;;0.60;0.60;;;;;;;-1.58;84.37;97129.84;29373;220;63005;-60
2022/01/07 01:44:09;;;;;;;0.60;0.60;;;;;;;-1.58;84.34;97135.19;29373;231;63009;-58
2022/01/07 01:44:41;;;;;;;0.70;0.70;;;;;;;-1.59;84.43;97127.41;29373;206;63005;-58
2022/01/07 01:45:16;;;;;;;0.60;0.60;;;;;;;-1.60;84.67;97131.09;29373;223;63009;-58
2022/01/07 01:45:48;;;;;;;1.23;1.23;;;;;;;-1.61;84.75;97132.12;29371;199;64005;-58
2022/01/07 01:46:20;;;;;;;0.60;0.60;;;;;;;-1.61;84.71;97129.47;29373;228;63009;-60
2022/01/07 01:46:51;;;;;;;0.70;0.70;;;;;;;-1.62;84.59;97136.63;29373;300;63004;-58
2022/01/07 01:47:23;;;;;;;0.60;0.60;;;;;;;-1.64;84.59;97140.50;29373;197;63009;-58
2022/01/07 01:47:56;;;;;;;0.60;0.60;;;;;;;-1.63;84.63;97136.81;29373;252;63004;-60
2022/01/07 01:48:27;;;;;;;0.70;0.70;;;;;;;-1.64;84.70;97130.69;29373;199;63009;-58
2022/01/07 01:48:59;;;;;;;0.70;0.70;;;;;;;-1.62;84.35;97133.13;29373;218;63004;-58
2022/01/07 01:49:31;;;;;;;0.60;0.60;;;;;;;-1.62;84.30;97125.97;29373;290;63008;-58
2022/01/07 01:50:04;;;;;;;0.70;0.70;;;;;;;-1.64;84.35;97135.19;29373;202;63005;-59
2022/01/07 01:50:37;;;;;;;1.35;1.35;;;;;;;-1.66;84.66;97126.59;29373;241;63009;-58
2022/01/07 01:51:12;;;;;;;0.60;0.60;;;;;;;-1.68;84.64;97132.12;29371;204;64005;-56
2022/01/07 01:51:45;;;;;;;0.70;0.70;;;;;;;-1.69;84.95;97133.16;29373;212;63009;-58
2022/01/07 01:52:17;;;;;;;1.65;1.65;;;;;;;-1.70;84.74;97134.19;29373;207;63005;-57
2022/01/07 01:52:53;;;;;;;0.70;0.70;;;;;;;-1.69;84.78;97131.31;29373;213;63009;-59
2022/01/07 01:53:26;;;;;;;0.60;0.60;;;;;;;-1.69;84.77;97133.16;29373;207;63011;-57
2022/01/07 01:53:58;;;;;;;0.70;0.70;;;;;;;-1.70;84.88;97131.53;29373;214;63009;-57
2022/01/07 01:54:30;;;;;;;0.75;0.75;;;;;;;-1.69;84.60;97133.97;29373;210;63004;-59
2022/01/07 01:55:04;;;;;;;0.70;0.70;;;;;;;-1.70;84.58;97127.03;29371;219;64002;-59
2022/01/07 01:55:35;;;;;;;0.73;0.73;;;;;;;-1.70;84.44;97131.53;29373;226;63004;-58
2022/01/07 01:56:09;;;;;;;0.70;0.70;;;;;;;-1.72;84.78;97128.25;29373;276;63009;-57
2022/01/07 01:56:41;;;;;;;0.70;0.70;;;;;;;-1.72;84.97;97128.25;29373;339;63004;-58
2022/01/07 01:57:13;;;;;;;0.60;0.60;;;;;;;-1.71;84.77;97119.25;29373;227;63008;-59
2022/01/07 01:57:46;;;;;;;0.80;0.80;;;;;;;-1.71;85.06;97128.03;29373;197;63005;-59
2022/01/07 01:58:18;;;;;;;0.70;0.70;;;;;;;-1.70;84.96;97126.19;29373;282;63009;-60
2022/01/07 01:58:52;;;;;;;0.70;0.70;;;;;;;-1.71;84.82;97124.56;29373;204;63005;-59
2022/01/07 01:59:30;;;;;;;0.70;0.70;;;;;;;-1.71;84.73;97121.91;29373;197;63009;-58
2022/01/07 02:00:05;;;;;;;0.70;0.70;;;;;;;-1.72;84.73;97125.59;29371;202;64005;-59
2022/01/07 02:00:39;;;;;;;0.70;0.70;;;;;;;-1.72;85.01;97125.59;29373;280;63009;-57
2022/01/07 02:01:12;;;;;;;0.60;0.60;;;;;;;-1.69;84.66;97125.19;29373;230;63005;-59
2022/01/07 02:01:48;;;;;;;0.65;0.65;;;;;;;-1.68;84.84;97129.47;29373;261;63009;-59
2022/01/07 02:02:21;;;;;;;0.60;0.60;;;;;;;-1.69;84.46;97120.66;29373;233;63004;-58
2022/01/07 02:02:54;;;;;;;0.60;0.60;;;;;;;-1.70;84.90;97123.53;29373;202;63009;-58
2022/01/07 02:03:25;;;;;;;0.70;0.70;;;;;;;-1.70;84.54;97118.22;29373;198;63008;-58
2022/01/07 02:03:57;;;;;;;0.70;0.70;;;;;;;-1.70;84.81;97123.53;29373;282;63009;-58
2022/01/07 02:04:29;;;;;;;0.70;0.70;;;;;;;-1.70;84.51;97120.87;29373;206;63004;-58
2022/01/07 02:05:02;;;;;;;0.70;0.70;;;;;;;-1.73;84.85;97121.28;29373;280;63008;-59
2022/01/07 02:05:34;;;;;;;0.70;0.70;;;;;;;-1.72;84.93;97123.75;29371;235;64005;-61
2022/01/07 02:06:06;;;;;;;0.60;0.60;;;;;;;-1.71;84.76;97117.41;29373;209;63009;-58
2022/01/07 02:06:38;;;;;;;0.70;0.70;;;;;;;-1.69;84.52;97117.19;29373;274;63001;-57
2022/01/07 02:07:12;;;;;;;0.70;0.70;;;;;;;-1.68;84.71;97118.81;29373;262;63009;-58
2022/01/07 02:07:44;;;;;;;0.70;0.70;;;;;;;-1.65;84.52;97110.44;29373;203;63005;-59
2022/01/07 02:08:17;;;;;;;0.70;0.70;;;;;;;-1.65;84.67;97118.41;29373;204;63009;-57
2022/01/07 02:08:52;;;;;;;0.70;0.70;;;;;;;-1.65;84.62;97107.78;29373;198;63017;-60
2022/01/07 02:09:32;;;;;;;0.70;0.70;;;;;;;-1.62;84.30;97111.84;29373;220;63009;-59
2022/01/07 02:10:08;;;;;;;0.65;0.65;;;;;;;-1.60;83.97;97107.13;29373;240;63004;-58
2022/01/07 02:10:40;;;;;;;0.70;0.70;;;;;;;-1.60;84.03;97104.47;29371;205;64009;-58
2022/01/07 02:11:12;;;;;;;0.70;0.70;;;;;;;-1.59;84.08;97106.13;29373;206;63004;-58
2022/01/07 02:11:46;;;;;;;0.70;0.70;;;;;;;-1.60;84.14;97096.50;29373;246;63009;-58
2022/01/07 02:12:18;;;;;;;0.70;0.70;;;;;;;-1.63;84.20;97100.41;29373;219;63004;-58
2022/01/07 02:12:52;;;;;;;0.60;0.60;;;;;;;-1.65;84.18;97099.78;29373;208;63009;-57
2022/01/07 02:13:24;;;;;;;0.90;0.90;;;;;;;-1.65;84.06;97097.13;29373;231;63005;-58
2022/01/07 02:13:56;;;;;;;0.70;0.70;;;;;;;-1.65;84.01;97086.50;29373;243;63009;-58
2022/01/07 02:14:28;;;;;;;0.70;0.70;;;;;;;-1.63;84.02;97094.25;29371;230;64005;-60
2022/01/07 02:14:59;;;;;;;1.87;1.83;;;;;;;-1.63;84.23;97095.06;29373;198;63009;-58
2022/01/07 02:15:31;;;;;;;0.70;0.70;;;;;;;-1.63;83.91;97095.06;29373;206;63005;-58
2022/01/07 02:16:03;;;;;;;0.70;0.70;;;;;;;-1.61;84.06;97090.37;29373;226;63009;-58
2022/01/07 02:16:35;;;;;;;0.90;0.90;;;;;;;-1.58;83.78;97097.09;29373;311;63005;-57
2022/01/07 02:17:14;;;;;;;0.70;0.70;;;;;;;-1.56;83.71;97101.19;29373;218;63009;-57
2022/01/07 02:17:49;;;;;;;0.70;0.70;;;;;;;-1.54;83.32;97093.00;29373;240;63004;-57
2022/01/07 02:18:20;;;;;;;0.70;0.70;;;;;;;-1.52;83.31;97091.75;29373;199;63009;-59
2022/01/07 02:18:53;;;;;;;0.60;0.60;;;;;;;-1.53;82.79;97084.81;29373;225;63004;-59
2022/01/07 02:19:32;;;;;;;0.60;0.60;;;;;;;-1.53;82.98;97084.81;29373;204;63008;-58
2022/01/07 02:20:05;;;;;;;0.70;0.70;;;;;;;-1.52;82.88;97089.09;29371;245;64004;-58
2022/01/07 02:20:37;;;;;;;0.70;0.70;;;;;;;-1.48;82.58;97087.66;29373;282;63009;-58
2022/01/07 02:21:08;;;;;;;0.70;0.70;;;;;;;-1.49;82.35;97083.34;29373;243;63005;-58
2022/01/07 02:21:42;;;;;;;0.70;0.70;;;;;;;-1.51;82.12;97088.06;29373;334;63009;-58
2022/01/07 02:22:17;;;;;;;0.65;0.65;;;;;;;-1.54;82.33;97083.16;29373;267;63005;-58
2022/01/07 02:22:49;;;;;;;0.70;0.70;;;;;;;-1.53;82.62;97090.13;29371;232;64009;-58
2022/01/07 02:23:22;;;;;;;0.70;0.70;;;;;;;-1.52;82.65;97089.09;29373;207;63005;-58
2022/01/07 02:23:54;;;;;;;0.70;0.70;;;;;;;-1.52;82.31;97086.44;29373;224;63009;-59
2022/01/07 02:24:25;;;;;;;0.70;0.70;;;;;;;-1.53;82.48;97084.00;29373;218;63004;-59
2022/01/07 02:24:57;;;;;;;0.70;0.70;;;;;;;-1.56;82.86;97095.88;29373;264;63009;-58
2022/01/07 02:25:30;;;;;;;0.70;0.70;;;;;;;-1.61;82.57;97087.69;29373;243;63004;-59
2022/01/07 02:26:05;;;;;;;0.70;0.70;;;;;;;-1.63;82.80;97095.06;29373;201;63008;-57
2022/01/07 02:26:40;;;;;;;0.70;0.70;;;;;;;-1.64;83.00;97093.44;29373;269;63004;-59
2022/01/07 02:27:15;;;;;;;0.60;0.60;;;;;;;-1.67;83.49;97090.37;29372;206;64008;-61
2022/01/07 02:27:47;;;;;;;0.70;0.70;;;;;;;-1.68;83.28;97092.22;29373;214;63005;-59
2022/01/07 02:28:19;;;;;;;0.70;0.70;;;;;;;-1.71;83.26;97090.81;29373;204;63017;-60
2022/01/07 02:28:51;;;;;;;0.70;0.70;;;;;;;-1.72;83.48;97086.50;29373;203;63005;-58
2022/01/07 02:29:22;;;;;;;2.35;2.25;;;;;;;-1.74;83.72;97082.44;29373;227;63009;-59
2022/01/07 02:29:54;;;;;;;0.70;0.70;;;;;;;-1.75;83.87;97091.47;29373;249;63005;-59
2022/01/07 02:30:30;;;;;;;0.70;0.70;;;;;;;-1.77;84.28;97088.19;29371;239;64009;-58
2022/01/07 02:31:04;;;;;;;0.70;0.70;;;;;;;-1.77;84.04;97088.19;29373;239;63004;-59
2022/01/07 02:31:36;;;;;;;0.95;0.95;;;;;;;-1.77;84.40;97088.19;29371;208;64009;-58
2022/01/07 02:32:08;;;;;;;0.70;0.70;;;;;;;-1.77;84.15;97088.19;29373;206;63004;-58
2022/01/07 02:32:41;;;;;;;0.70;0.70;;;;;;;-1.76;84.27;97084.50;29373;291;63009;-59
2022/01/07 02:33:14;;;;;;;23.48;3.10;;;;;;;-1.76;84.06;97085.31;29368;203;64004;-59
2022/01/07 02:33:45;;;;;;;0.70;0.70;;;;;;;-1.76;84.31;97085.31;29371;200;64008;-58
2022/01/07 02:34:17;;;;;;;0.70;0.70;;;;;;;-1.75;84.11;97080.81;29373;196;63004;-58
2022/01/07 02:34:49;;;;;;;0.70;0.70;;;;;;;-1.72;84.34;97091.81;29373;216;63009;-59
2022/01/07 02:35:24;;;;;;;0.70;0.70;;;;;;;-1.72;83.85;97086.50;29371;224;64005;-59
2022/01/07 02:35:56;;;;;;;0.70;0.70;;;;;;;-1.71;83.71;97082.00;29373;231;63009;-58
2022/01/07 02:36:28;;;;;;;0.70;0.70;;;;;;;-1.68;83.49;97081.59;29374;286;63005;-58
2022/01/07 02:37:00;;;;;;;0.70;0.70;;;;;;;-1.72;83.27;97081.19;29374;202;63019;-59
2022/01/07 02:37:32;;;;;;;0.70;0.70;;;;;;;-1.74;83.26;97088.59;29374;230;63005;-58